Time;durP1;ratioP1;P1;durP2;ratioP2;P2;SDS_P1;SDS_P2;PMS_P1;PMS_P2;Temp;Humidity;BMP_temperature;BMP_pressure;BME280_temperature;BME280_humidity;BME280_pressure;Samples;Min_cycle;Max_cycle;Signal;HPM_P1;HPM_P2
2022/01/18 00:00:19;;;;;;;48.03;16.08;;;3.00;99.90;;;;;;5070474;28;20032;-86
2022/01/18 00:02:45;;;;;;;49.80;15.70;;;3.00;99.90;;;;;;5059078;28;20040;-86
2022/01/18 00:05:14;;;;;;;46.80;14.13;;;3.00;99.90;;;;;;5055906;28;20089;-86
2022/01/18 00:07:44;;;;;;;40.65;14.02;;;3.00;99.90;;;;;;5057959;28;20032;-86
2022/01/18 00:10:12;;;;;;;46.28;15.13;;;3.00;99.90;;;;;;5049317;28;20062;-86
2022/01/18 00:17:53;;;;;;;51.95;17.23;;;3.00;99.90;;;;;;5082976;28;20384;-86
2022/01/18 00:20:28;;;;;;;51.90;16.75;;;3.10;99.90;;;;;;5049421;28;20153;-86
2022/01/18 00:22:54;;;;;;;45.38;15.27;;;3.10;99.90;;;;;;5062189;28;20032;-86
2022/01/18 00:25:20;;;;;;;47.22;15.95;;;3.10;99.90;;;;;;5026712;28;20043;-86
2022/01/18 00:27:46;;;;;;;41.13;15.15;;;3.10;99.90;;;;;;5032868;28;20032;-86
2022/01/18 00:35:06;;;;;;;48.10;16.25;;;3.00;99.90;;;;;;5066969;28;20025;-86
2022/01/18 00:37:35;;;;;;;45.60;15.00;;;3.00;99.90;;;;;;5059093;28;20081;-87
2022/01/18 00:40:03;;;;;;;44.55;14.82;;;3.10;99.90;;;;;;5057808;28;20040;-86
2022/01/18 00:42:28;;;;;;;42.72;15.38;;;3.10;99.90;;;;;;5051059;28;20031;-86
2022/01/18 00:44:54;;;;;;;41.53;14.57;;;3.00;99.90;;;;;;5073986;28;20501;-86
2022/01/18 00:47:20;;;;;;;52.40;14.40;;;3.10;99.90;;;;;;5048249;28;20071;-86
2022/01/18 00:49:47;;;;;;;41.65;13.98;;;3.00;99.90;;;;;;5054259;28;20230;-86
2022/01/18 00:52:17;;;;;;;42.50;15.40;;;3.00;99.90;;;;;;5038025;28;20028;-86
2022/01/18 00:54:45;;;;;;;46.63;15.48;;;3.10;99.90;;;;;;5073716;28;20036;-87
2022/01/18 00:57:12;;;;;;;57.40;16.27;;;3.10;99.90;;;;;;5073065;28;20035;-86
2022/01/18 00:59:40;;;;;;;47.92;15.27;;;3.00;99.90;;;;;;5085191;28;20025;-86
2022/01/18 01:02:07;;;;;;;51.47;16.85;;;3.10;99.90;;;;;;5056953;28;20028;-86
2022/01/18 01:04:37;;;;;;;48.92;16.92;;;3.00;99.90;;;;;;5054243;28;20110;-86
2022/01/18 01:07:03;;;;;;;47.05;16.40;;;3.10;99.90;;;;;;5038741;28;20036;-86
2022/01/18 01:09:29;;;;;;;42.95;15.43;;;3.00;99.90;;;;;;5066322;28;20181;-86
2022/01/18 01:11:54;;;;;;;45.67;15.85;;;3.00;99.90;;;;;;5056924;28;20039;-86
2022/01/18 01:14:23;;;;;;;50.78;15.52;;;3.10;99.90;;;;;;5054842;28;20485;-86
2022/01/18 01:19:45;;;;;;;47.75;15.35;;;3.00;99.90;;;;;;5090476;28;20027;-86
2022/01/18 01:41:50;;;;;;;46.35;14.38;;;3.00;99.90;;;;;;5077950;28;20043;-86
2022/01/18 01:47:33;;;;;;;43.63;14.17;;;3.00;99.90;;;;;;5747373;22;20079;-83
2022/01/18 01:50:00;;;;;;;49.05;15.80;;;3.00;99.90;;;;;;5054488;28;20037;-83
2022/01/18 01:52:25;;;;;;;54.95;16.58;;;3.00;99.90;;;;;;5040696;28;20051;-83
2022/01/18 01:54:54;;;;;;;49.63;16.33;;;3.00;99.90;;;;;;5057951;28;20037;-83
2022/01/18 01:57:24;;;;;;;63.95;16.88;;;3.00;99.90;;;;;;5066273;28;20055;-84
2022/01/18 01:59:53;;;;;;;47.50;15.23;;;3.00;99.90;;;;;;5038328;28;20115;-84
2022/01/18 02:02:20;;;;;;;49.30;14.98;;;3.00;99.90;;;;;;5038874;28;20075;-84
2022/01/18 02:04:46;;;;;;;39.58;13.38;;;3.00;99.90;;;;;;5060974;28;20453;-84
2022/01/18 02:07:11;;;;;;;38.22;13.18;;;3.00;99.90;;;;;;5038506;28;20057;-83
2022/01/18 02:09:44;;;;;;;42.47;14.25;;;3.00;99.90;;;;;;5038501;28;20028;-84
2022/01/18 02:12:15;;;;;;;42.90;13.13;;;3.00;99.90;;;;;;5047507;28;20036;-83
2022/01/18 02:14:46;;;;;;;47.17;14.27;;;3.00;99.90;;;;;;5025925;28;20029;-84
2022/01/18 02:22:47;;;;;;;36.45;13.23;;;3.00;99.90;;;;;;5054744;28;20051;-84
2022/01/18 02:25:14;;;;;;;51.42;16.63;;;3.00;99.90;;;;;;5056177;28;20484;-83
2022/01/18 02:27:40;;;;;;;44.53;12.70;;;3.00;99.90;;;;;;5053919;28;20037;-84
2022/01/18 02:30:12;;;;;;;45.80;15.43;;;3.00;99.90;;;;;;5056014;28;20059;-84
2022/01/18 02:32:38;;;;;;;38.58;13.25;;;3.00;99.90;;;;;;5018077;28;20035;-83
2022/01/18 02:35:05;;;;;;;42.72;13.55;;;3.00;99.90;;;;;;5034942;28;20017;-83
2022/01/18 02:37:31;;;;;;;56.25;17.35;;;3.00;99.90;;;;;;5050972;28;20036;-84
2022/01/18 02:39:58;;;;;;;56.22;16.23;;;3.00;99.90;;;;;;5069111;28;20063;-83
2022/01/18 02:42:44;;;;;;;56.00;14.55;;;3.00;99.90;;;;;;5038891;28;20040;-83
2022/01/18 02:45:09;;;;;;;46.38;14.32;;;3.00;99.90;;;;;;5042688;28;20037;-84
2022/01/18 02:47:35;;;;;;;40.55;13.32;;;3.00;99.90;;;;;;5037320;28;20107;-83
2022/01/18 02:50:00;;;;;;;47.88;13.77;;;3.00;99.90;;;;;;5043764;28;20025;-84
2022/01/18 02:52:26;;;;;;;48.47;13.77;;;3.00;99.90;;;;;;5039154;28;20041;-84
2022/01/18 02:54:58;;;;;;;47.67;14.70;;;3.00;99.90;;;;;;5027267;28;20079;-84
2022/01/18 02:57:27;;;;;;;49.15;15.60;;;3.00;99.90;;;;;;5044871;28;20132;-83
2022/01/18 03:00:15;;;;;;;41.35;13.90;;;3.00;99.90;;;;;;5043531;28;20333;-84
2022/01/18 03:05:27;;;;;;;50.00;15.45;;;3.00;99.90;;;;;;5067482;28;20405;-84
2022/01/18 03:07:56;;;;;;;54.67;15.60;;;3.10;99.90;;;;;;5057564;28;20044;-84
2022/01/18 03:10:22;;;;;;;43.70;15.45;;;3.10;99.90;;;;;;5052623;28;20119;-84
2022/01/18 03:13:11;;;;;;;53.88;14.23;;;3.00;99.90;;;;;;5073806;28;20505;-84
2022/01/18 03:15:37;;;;;;;53.35;15.02;;;3.00;99.90;;;;;;5016571;28;20089;-84
2022/01/18 03:18:07;;;;;;;57.53;16.20;;;3.00;99.90;;;;;;5020046;28;20032;-83
2022/01/18 03:20:33;;;;;;;52.03;15.00;;;3.00;99.90;;;;;;5054405;28;20052;-84
2022/01/18 03:23:11;;;;;;;50.22;15.10;;;3.00;99.90;;;;;;5036790;28;20124;-84
2022/01/18 03:26:19;;;;;;;46.03;14.35;;;3.00;99.90;;;;;;5054006;28;20489;-84
2022/01/18 03:28:29;;;;;;;53.25;13.98;;;3.10;99.90;;;;;;5050821;28;20118;-84
2022/01/18 03:30:58;;;;;;;57.88;14.15;;;3.10;99.90;;;;;;5046635;28;20036;-84
2022/01/18 03:33:25;;;;;;;49.15;13.45;;;3.10;99.90;;;;;;5056888;28;20033;-84
2022/01/18 03:35:53;;;;;;;48.00;12.65;;;3.10;99.90;;;;;;5055128;28;20098;-84
2022/01/18 03:38:29;;;;;;;53.80;14.23;;;3.10;99.90;;;;;;5054575;28;20032;-84
2022/01/18 03:41:01;;;;;;;56.33;14.50;;;3.10;99.90;;;;;;5036598;28;20044;-84
2022/01/18 03:43:32;;;;;;;59.17;15.90;;;3.10;99.90;;;;;;5036633;28;20456;-83
2022/01/18 03:46:02;;;;;;;55.13;14.77;;;3.10;99.90;;;;;;5067887;28;20032;-84
2022/01/18 03:48:32;;;;;;;53.80;14.82;;;3.10;99.90;;;;;;5036561;28;20037;-84
2022/01/18 03:51:05;;;;;;;48.22;13.68;;;3.10;99.90;;;;;;5040579;28;20292;-84
2022/01/18 03:53:34;;;;;;;49.22;13.68;;;3.10;99.90;;;;;;5044908;28;20040;-83
2022/01/18 03:56:02;;;;;;;40.63;12.65;;;3.10;99.90;;;;;;5036177;28;20017;-84
2022/01/18 03:58:28;;;;;;;46.50;12.25;;;3.10;99.90;;;;;;5036117;28;20037;-83
2022/01/18 04:00:54;;;;;;;62.85;15.52;;;3.10;99.90;;;;;;5036574;28;20035;-84
2022/01/18 04:03:19;;;;;;;46.53;14.38;;;3.10;99.90;;;;;;5037029;28;20032;-84
2022/01/18 04:05:52;;;;;;;39.05;11.60;;;3.10;99.90;;;;;;5033901;28;20024;-83
2022/01/18 04:08:22;;;;;;;48.22;13.65;;;3.10;99.90;;;;;;5017533;28;20051;-84
2022/01/18 04:10:50;;;;;;;52.70;12.27;;;3.00;99.90;;;;;;5036427;28;20376;-83
2022/01/18 04:13:19;;;;;;;36.80;11.25;;;3.10;99.90;;;;;;5065050;28;20067;-84
2022/01/18 04:15:45;;;;;;;51.03;13.13;;;3.00;99.90;;;;;;5059130;28;20033;-83
2022/01/18 04:28:58;;;;;;;37.10;11.27;;;3.00;99.90;;;;;;5052990;28;20413;-83
2022/01/18 04:31:26;;;;;;;40.47;11.43;;;3.00;99.90;;;;;;5057267;28;20113;-84
2022/01/18 04:33:52;;;;;;;46.40;12.65;;;3.00;99.90;;;;;;5052717;28;20566;-83
2022/01/18 04:36:22;;;;;;;39.83;11.18;;;3.00;99.90;;;;;;5055317;28;20033;-83
2022/01/18 04:38:50;;;;;;;42.45;12.73;;;3.00;99.90;;;;;;5035923;28;20040;-83
2022/01/18 04:41:18;;;;;;;34.03;11.98;;;3.10;99.90;;;;;;5029122;28;20041;-84
2022/01/18 04:48:23;;;;;;;46.05;13.18;;;3.10;99.90;;;;;;5069838;28;20511;-83
2022/01/18 04:49:17;;;;;;;37.15;12.63;;;3.10;99.90;;;;;;5039547;28;20083;-84
2022/01/18 04:51:46;;;;;;;53.03;13.85;;;3.00;99.90;;;;;;5053100;28;20029;-84
2022/01/18 04:54:15;;;;;;;38.67;13.15;;;3.10;99.90;;;;;;5036377;28;20108;-84
2022/01/18 04:59:12;;;;;;;47.63;12.70;;;3.10;99.90;;;;;;5053552;28;20127;-84
2022/01/18 05:01:41;;;;;;;39.15;12.90;;;3.10;99.90;;;;;;5048811;28;20524;-84
2022/01/18 05:04:07;;;;;;;46.30;12.40;;;3.10;99.90;;;;;;5073683;28;20056;-84
2022/01/18 05:06:34;;;;;;;49.65;12.88;;;3.10;99.90;;;;;;5056116;28;20029;-83
2022/01/18 05:09:01;;;;;;;44.92;13.27;;;3.00;99.90;;;;;;5054883;28;20088;-84
2022/01/18 05:11:39;;;;;;;47.33;13.73;;;3.10;99.90;;;;;;5061861;28;20527;-83
2022/01/18 05:14:28;;;;;;;55.45;14.45;;;3.10;99.90;;;;;;5016578;28;20026;-83
2022/01/18 05:19:41;;;;;;;39.15;11.57;;;3.00;99.90;;;;;;5058548;28;20032;-84
2022/01/18 05:24:54;;;;;;;43.20;12.40;;;3.10;99.90;;;;;;5038576;28;20130;-84
2022/01/18 05:27:20;;;;;;;41.08;11.57;;;3.00;99.90;;;;;;5019410;28;20541;-84
2022/01/18 05:29:50;;;;;;;58.35;16.05;;;3.00;99.90;;;;;;5049128;28;20017;-84
2022/01/18 05:32:16;;;;;;;58.08;15.07;;;3.00;99.90;;;;;;5076512;28;20025;-84
2022/01/18 05:34:44;;;;;;;50.58;15.18;;;3.10;99.90;;;;;;5043041;28;20033;-83
2022/01/18 05:37:10;;;;;;;46.28;13.73;;;3.00;99.90;;;;;;5039504;28;20037;-83
2022/01/18 05:39:39;;;;;;;54.13;15.30;;;3.00;99.90;;;;;;5042607;28;20050;-83
2022/01/18 05:42:05;;;;;;;55.45;14.10;;;3.00;99.90;;;;;;5039245;28;20021;-84
2022/01/18 05:44:31;;;;;;;56.60;16.08;;;3.00;99.90;;;;;;5054471;28;20020;-84
2022/01/18 05:46:56;;;;;;;55.92;15.15;;;3.00;99.90;;;;;;5056148;28;20032;-83
2022/01/18 05:49:22;;;;;;;48.03;13.90;;;3.00;99.90;;;;;;5039227;28;20151;-83
2022/01/18 05:51:52;;;;;;;58.42;13.88;;;3.00;99.90;;;;;;5061340;28;20079;-83
2022/01/18 05:54:18;;;;;;;58.70;16.17;;;2.90;99.90;;;;;;5039417;28;20029;-83
2022/01/18 05:56:44;;;;;;;52.50;14.82;;;2.90;99.90;;;;;;5058246;28;20021;-83
2022/01/18 05:59:13;;;;;;;52.50;15.40;;;2.90;99.90;;;;;;5041761;28;20029;-84
2022/01/18 06:01:47;;;;;;;53.60;14.60;;;3.00;99.90;;;;;;5040047;28;20033;-84
2022/01/18 06:06:50;;;;;;;48.47;13.40;;;2.90;99.90;;;;;;5051049;28;20067;-84
2022/01/18 06:07:00;;;;;;;57.10;14.77;;;3.00;99.90;;;;;;5074002;28;20194;-84
2022/01/18 06:09:25;;;;;;;44.47;13.50;;;2.90;99.90;;;;;;5063370;28;20082;-84
2022/01/18 06:11:54;;;;;;;73.35;15.73;;;2.90;99.90;;;;;;5057417;28;20021;-84
2022/01/18 06:14:20;;;;;;;48.00;14.20;;;2.90;99.90;;;;;;5051193;28;20044;-84
2022/01/18 06:16:45;;;;;;;58.10;15.02;;;2.90;99.90;;;;;;5038483;28;20025;-84
2022/01/18 06:19:15;;;;;;;126.13;16.45;;;2.90;99.90;;;;;;5038792;28;20037;-84
2022/01/18 06:21:42;;;;;;;76.50;16.75;;;2.90;99.90;;;;;;5045109;28;20047;-84
2022/01/18 06:24:11;;;;;;;58.65;16.30;;;2.80;99.90;;;;;;5056315;28;20044;-84
2022/01/18 06:26:38;;;;;;;86.57;16.42;;;2.90;99.90;;;;;;5051116;28;20036;-84
2022/01/18 06:29:04;;;;;;;58.78;15.15;;;2.90;99.90;;;;;;5067291;28;20119;-84
2022/01/18 06:31:30;;;;;;;42.17;13.38;;;2.90;99.90;;;;;;5058905;28;20103;-84
2022/01/18 06:33:56;;;;;;;44.33;12.63;;;2.90;99.90;;;;;;5038641;28;20064;-84
2022/01/18 06:36:22;;;;;;;47.67;12.52;;;2.90;99.90;;;;;;5038255;28;20025;-84
2022/01/18 06:38:50;;;;;;;44.83;12.80;;;2.90;99.90;;;;;;5069593;28;20075;-83
2022/01/18 06:41:16;;;;;;;51.60;12.75;;;2.90;99.90;;;;;;5051680;28;20029;-83
2022/01/18 06:43:44;;;;;;;48.75;14.10;;;2.90;99.90;;;;;;5042152;28;20373;-83
2022/01/18 06:46:11;;;;;;;47.97;12.85;;;2.90;99.90;;;;;;5058550;28;20090;-84
2022/01/18 06:48:42;;;;;;;45.65;11.25;;;2.90;99.90;;;;;;5057730;28;20082;-84
2022/01/18 06:51:08;;;;;;;37.72;11.82;;;2.90;99.90;;;;;;5056575;28;20199;-83
2022/01/18 06:53:44;;;;;;;36.00;11.38;;;3.00;99.90;;;;;;5057333;28;20033;-84
2022/01/18 06:56:15;;;;;;;40.15;12.82;;;3.00;99.90;;;;;;5056703;28;20489;-84
2022/01/18 06:58:41;;;;;;;45.97;14.85;;;3.00;99.90;;;;;;5073413;28;20094;-83
2022/01/18 07:01:08;;;;;;;55.83;15.60;;;3.00;99.90;;;;;;5050967;28;20028;-84
2022/01/18 07:03:37;;;;;;;54.78;18.50;;;3.00;99.90;;;;;;5074803;28;20032;-84
2022/01/18 07:06:03;;;;;;;58.50;18.48;;;3.10;99.90;;;;;;5055513;28;20048;-84
2022/01/18 07:08:33;;;;;;;72.88;18.50;;;3.00;99.90;;;;;;5055162;28;20418;-84
2022/01/18 07:10:59;;;;;;;53.67;16.70;;;3.10;99.90;;;;;;5049487;28;20044;-84
2022/01/18 07:13:24;;;;;;;46.70;16.42;;;3.00;99.90;;;;;;5054216;28;20466;-83
2022/01/18 07:15:50;;;;;;;53.33;14.38;;;3.00;99.90;;;;;;5055782;28;20478;-84
2022/01/18 07:18:16;;;;;;;46.30;14.98;;;3.00;99.90;;;;;;5037657;28;20486;-84
2022/01/18 07:20:42;;;;;;;44.55;12.45;;;3.00;99.90;;;;;;5039360;28;20055;-83
2022/01/18 07:23:13;;;;;;;33.42;12.20;;;3.00;99.90;;;;;;5068517;28;20063;-84
2022/01/18 07:25:45;;;;;;;52.83;13.82;;;3.00;99.90;;;;;;5056128;28;20037;-84
2022/01/18 07:28:17;;;;;;;45.60;13.32;;;3.00;99.90;;;;;;5057025;28;20064;-84
2022/01/18 07:30:43;;;;;;;42.22;15.02;;;3.00;99.90;;;;;;5040661;28;20393;-84
2022/01/18 07:33:12;;;;;;;38.70;12.95;;;3.00;99.90;;;;;;5055173;28;20024;-83
2022/01/18 07:35:38;;;;;;;38.72;13.55;;;3.00;99.90;;;;;;5053606;28;20051;-84
2022/01/18 07:38:06;;;;;;;35.20;12.35;;;3.00;99.90;;;;;;5038266;28;20119;-84
2022/01/18 07:40:34;;;;;;;32.50;12.35;;;3.00;99.90;;;;;;5064771;28;20119;-84
2022/01/18 07:43:01;;;;;;;33.67;11.98;;;3.00;99.90;;;;;;5038654;28;20460;-84
2022/01/18 07:45:50;;;;;;;40.30;13.00;;;3.00;99.90;;;;;;5040745;28;20367;-84
2022/01/18 07:48:24;;;;;;;35.78;11.35;;;3.10;99.90;;;;;;5058938;28;20531;-83
2022/01/18 07:50:52;;;;;;;36.85;11.05;;;3.00;99.90;;;;;;5062280;28;20043;-83
2022/01/18 07:53:18;;;;;;;30.90;11.90;;;3.10;99.90;;;;;;5021959;28;20036;-83
2022/01/18 07:55:47;;;;;;;39.75;12.38;;;3.10;99.90;;;;;;5041708;28;20020;-84
2022/01/18 07:58:15;;;;;;;31.73;10.05;;;3.10;99.90;;;;;;5047267;28;20147;-84
2022/01/18 08:00:41;;;;;;;35.33;12.48;;;3.20;99.90;;;;;;5037498;28;20033;-84
2022/01/18 08:03:11;;;;;;;27.65;9.95;;;3.20;99.90;;;;;;5052953;28;20037;-83
2022/01/18 08:05:45;;;;;;;35.80;12.60;;;3.20;99.90;;;;;;5044658;28;20032;-85
2022/01/18 08:08:11;;;;;;;25.27;10.55;;;3.30;99.90;;;;;;5052657;28;20036;-84
2022/01/18 08:10:36;;;;;;;28.80;9.98;;;3.30;99.90;;;;;;5044035;28;20026;-85
2022/01/18 08:13:13;;;;;;;32.90;11.02;;;3.30;99.90;;;;;;5049787;28;20071;-85
2022/01/18 08:15:57;;;;;;;39.05;11.48;;;3.40;99.90;;;;;;5032794;28;20056;-85
2022/01/18 08:18:22;;;;;;;28.58;9.85;;;3.40;99.90;;;;;;5049404;28;20048;-84
2022/01/18 08:20:48;;;;;;;35.38;10.85;;;3.50;99.90;;;;;;5049802;28;20044;-85
2022/01/18 08:23:14;;;;;;;25.77;9.85;;;3.50;99.90;;;;;;5048805;28;20029;-84
2022/01/18 08:25:44;;;;;;;30.38;10.82;;;3.60;99.90;;;;;;5050559;28;20025;-85
2022/01/18 08:28:09;;;;;;;38.20;13.15;;;3.70;99.90;;;;;;5043946;28;20517;-85
2022/01/18 08:30:35;;;;;;;32.80;12.00;;;3.70;99.90;;;;;;5054336;28;20033;-84
2022/01/18 08:33:02;;;;;;;42.08;13.55;;;3.80;99.90;;;;;;5049562;28;20025;-85
2022/01/18 08:35:27;;;;;;;32.92;12.88;;;3.80;99.90;;;;;;5032916;28;20051;-85
2022/01/18 08:37:53;;;;;;;35.45;12.20;;;3.90;99.90;;;;;;5032309;28;20041;-84
2022/01/18 08:40:20;;;;;;;38.08;12.77;;;3.90;99.90;;;;;;5032733;28;20033;-85
2022/01/18 08:42:46;;;;;;;35.42;13.35;;;4.00;99.90;;;;;;5050537;28;20033;-85
2022/01/18 08:45:13;;;;;;;36.10;13.48;;;4.00;99.90;;;;;;5032349;28;20032;-86
2022/01/18 08:47:45;;;;;;;35.40;12.82;;;4.10;99.90;;;;;;5032360;28;20021;-84
2022/01/18 08:50:28;;;;;;;40.40;14.13;;;4.20;99.90;;;;;;5047928;28;20547;-85
2022/01/18 08:52:53;;;;;;;38.47;13.25;;;4.20;99.90;;;;;;5052371;28;20509;-85
2022/01/18 08:55:21;;;;;;;32.47;11.93;;;4.30;99.90;;;;;;5040131;28;20043;-85
2022/01/18 08:57:47;;;;;;;39.47;14.43;;;4.30;99.90;;;;;;5073594;28;20037;-85
2022/01/18 09:00:18;;;;;;;32.45;14.20;;;4.40;99.90;;;;;;5056210;28;20386;-85
2022/01/18 09:02:44;;;;;;;;;;;4.40;99.90;;;;;;5056956;28;20032;-85
2022/01/18 09:05:10;;;;;;;37.08;13.40;;;4.40;99.90;;;;;;5074378;28;20364;-85
2022/01/18 09:07:38;;;;;;;36.88;14.57;;;4.50;99.90;;;;;;5056109;28;20029;-85
2022/01/18 09:10:10;;;;;;;43.53;15.18;;;4.50;99.90;;;;;;5056457;28;20020;-85
2022/01/18 09:12:36;;;;;;;38.22;15.38;;;4.50;99.90;;;;;;5040659;28;20021;-85
2022/01/18 09:15:07;;;;;;;41.83;14.88;;;4.60;99.90;;;;;;5036460;28;20127;-85
2022/01/18 09:17:34;;;;;;;34.53;13.75;;;4.70;99.90;;;;;;5035721;28;20045;-85
2022/01/18 09:20:05;;;;;;;33.75;14.30;;;4.70;99.90;;;;;;5036241;28;20041;-85
2022/01/18 09:22:34;;;;;;;35.60;15.02;;;4.80;99.90;;;;;;5036191;28;20029;-86
2022/01/18 09:25:05;;;;;;;33.35;14.45;;;4.80;99.90;;;;;;5035997;28;20103;-85
2022/01/18 09:27:32;;;;;;;40.50;14.10;;;4.90;99.90;;;;;;5035594;28;20455;-85
2022/01/18 09:30:01;;;;;;;35.63;14.25;;;4.90;99.90;;;;;;5054061;28;20520;-85
2022/01/18 09:32:27;;;;;;;41.92;15.10;;;5.00;99.90;;;;;;5036134;28;20477;-85
2022/01/18 09:34:53;;;;;;;40.30;14.85;;;5.00;99.90;;;;;;5036203;28;20112;-85
2022/01/18 09:37:19;;;;;;;38.17;13.65;;;5.00;99.90;;;;;;5035446;28;20047;-85
2022/01/18 09:39:47;;;;;;;40.65;14.48;;;5.10;99.90;;;;;;5035328;28;20029;-85
2022/01/18 09:42:14;;;;;;;32.00;12.70;;;5.10;99.90;;;;;;5035846;28;20036;-85
2022/01/18 09:44:48;;;;;;;33.00;13.15;;;5.20;99.90;;;;;;5035892;28;20504;-85
2022/01/18 09:47:14;;;;;;;30.88;12.00;;;5.20;99.90;;;;;;5035563;28;20028;-85
2022/01/18 09:49:39;;;;;;;34.85;11.98;;;5.30;99.90;;;;;;5035735;28;20033;-85
2022/01/18 09:52:08;;;;;;;33.53;12.05;;;5.30;99.90;;;;;;5035441;28;20033;-85
2022/01/18 09:54:34;;;;;;;31.60;11.93;;;5.40;99.90;;;;;;5035677;28;20032;-85
2022/01/18 09:57:00;;;;;;;27.20;11.57;;;5.40;99.90;;;;;;5035156;28;20029;-85
2022/01/18 09:59:27;;;;;;;32.35;10.90;;;5.50;99.90;;;;;;5018971;28;20025;-85
2022/01/18 10:01:53;;;;;;;34.42;11.15;;;5.50;99.90;;;;;;5035006;28;20482;-85
2022/01/18 10:04:26;;;;;;;35.50;12.45;;;5.60;99.90;;;;;;5052024;28;20029;-85
2022/01/18 10:06:56;;;;;;;27.05;11.27;;;5.60;99.90;;;;;;5035233;28;20044;-86
2022/01/18 10:09:27;;;;;;;26.70;9.98;;;5.70;99.90;;;;;;5035470;28;20040;-85
2022/01/18 10:12:19;;;;;;;24.52;9.20;;;5.70;99.90;;;;;;5052017;28;20049;-85
2022/01/18 10:14:53;;;;;;;26.35;9.40;;;5.80;99.90;;;;;;5034914;28;20123;-85
2022/01/18 10:17:38;;;;;;;21.30;8.75;;;5.90;99.90;;;;;;5052938;28;20054;-85
2022/01/18 10:20:17;;;;;;;21.73;9.02;;;5.90;99.90;;;;;;5035204;28;20048;-85
2022/01/18 10:22:48;;;;;;;20.73;8.32;;;6.00;99.90;;;;;;5019137;28;20041;-85
2022/01/18 10:25:26;;;;;;;20.88;8.85;;;6.00;99.90;;;;;;5035136;28;20086;-85
2022/01/18 10:27:53;;;;;;;22.42;8.45;;;6.10;99.90;;;;;;5018265;28;20116;-85
2022/01/18 10:30:43;;;;;;;19.85;7.35;;;6.10;99.90;;;;;;5036317;28;20727;-85
2022/01/18 10:33:19;;;;;;;18.75;7.65;;;6.20;99.90;;;;;;5054819;28;20020;-85
2022/01/18 10:36:10;;;;;;;18.15;7.35;;;6.30;99.90;;;;;;5054969;28;20020;-85
2022/01/18 10:38:59;;;;;;;22.35;8.15;;;6.30;99.90;;;;;;5054394;28;20028;-85
2022/01/18 10:41:31;;;;;;;18.55;6.55;;;6.30;99.90;;;;;;5054701;28;20123;-85
2022/01/18 10:44:14;;;;;;;17.15;7.07;;;6.40;99.90;;;;;;5054611;28;20401;-86
2022/01/18 10:46:54;;;;;;;15.48;6.20;;;6.50;99.90;;;;;;5071462;28;20039;-86
2022/01/18 10:49:43;;;;;;;15.50;6.82;;;6.60;99.90;;;;;;5072507;28;20036;-85
2022/01/18 10:52:20;;;;;;;17.05;6.07;;;6.70;99.90;;;;;;5054308;28;20717;-86
2022/01/18 10:54:51;;;;;;;23.25;6.53;;;6.70;99.90;;;;;;5070911;28;20070;-85
2022/01/18 10:57:22;;;;;;;16.67;6.60;;;6.80;99.90;;;;;;5054002;28;20029;-85
2022/01/18 11:00:04;;;;;;;11.60;5.65;;;6.90;99.90;;;;;;5053471;28;20037;-85
2022/01/18 11:02:38;;;;;;;17.55;5.90;;;6.90;99.90;;;;;;5072142;28;20017;-85
2022/01/18 11:05:26;;;;;;;13.35;4.32;;;6.90;99.90;;;;;;5070319;28;20115;-86
2022/01/18 11:07:53;;;;;;;12.10;4.28;;;7.00;99.90;;;;;;5053511;28;20117;-86
2022/01/18 11:10:26;;;;;;;14.65;3.95;;;7.00;99.90;;;;;;5072260;28;20082;-85
2022/01/18 11:13:10;;;;;;;10.20;3.58;;;6.90;99.90;;;;;;5054084;28;20025;-85
2022/01/18 11:15:40;;;;;;;8.85;3.40;;;6.90;99.90;;;;;;5070194;28;20090;-85
2022/01/18 11:18:15;;;;;;;8.97;3.43;;;7.00;99.90;;;;;;5053949;28;20413;-86
2022/01/18 11:20:46;;;;;;;5.43;3.50;;;7.00;99.90;;;;;;5053965;28;20262;-86
2022/01/18 11:23:15;;;;;;;5.85;3.22;;;7.00;99.90;;;;;;5054008;28;20499;-86
2022/01/18 11:25:48;;;;;;;12.07;4.00;;;7.10;99.90;;;;;;5070040;28;20045;-86
2022/01/18 11:28:16;;;;;;;8.07;2.90;;;7.10;99.90;;;;;;5053456;28;20120;-86
2022/01/18 11:30:45;;;;;;;8.18;1.95;;;7.10;99.90;;;;;;5070666;28;20041;-85
2022/01/18 11:33:13;;;;;;;6.95;2.47;;;7.10;99.90;;;;;;5053516;28;20059;-86
2022/01/18 11:35:56;;;;;;;7.63;2.10;;;7.10;99.90;;;;;;5070312;28;20020;-86
2022/01/18 11:38:36;;;;;;;2.97;1.40;;;7.20;99.90;;;;;;5053318;28;20024;-86
2022/01/18 11:41:03;;;;;;;5.80;1.40;;;7.20;99.90;;;;;;5053660;28;20032;-86
2022/01/18 11:43:44;;;;;;;3.75;0.90;;;7.30;99.90;;;;;;5053377;28;20090;-86
2022/01/18 11:46:21;;;;;;;5.00;0.98;;;7.20;99.90;;;;;;5053860;28;20560;-85
2022/01/18 11:48:49;;;;;;;2.45;0.98;;;7.20;99.90;;;;;;5070840;28;20033;-85
2022/01/18 11:51:34;;;;;;;1.15;0.60;;;7.20;99.90;;;;;;5053188;28;20485;-86
2022/01/18 11:54:19;;;;;;;1.17;0.70;;;7.10;99.90;;;;;;5071330;28;20031;-86
2022/01/18 11:56:51;;;;;;;0.82;0.40;;;7.10;99.90;;;;;;5053288;28;20157;-85
2022/01/18 11:59:46;;;;;;;1.75;0.40;;;7.10;99.90;;;;;;5053453;28;20028;-85
2022/01/18 12:02:27;;;;;;;0.65;0.20;;;7.10;99.90;;;;;;5044481;28;20386;-85
2022/01/18 12:05:04;;;;;;;0.50;0.40;;;7.20;99.90;;;;;;5071127;28;20016;-86
2022/01/18 12:07:39;;;;;;;0.40;0.40;;;7.20;99.90;;;;;;5052643;28;20025;-86
2022/01/18 12:10:20;;;;;;;0.70;0.50;;;7.30;99.90;;;;;;5071012;28;20040;-85
2022/01/18 12:12:51;;;;;;;2.22;0.55;;;7.30;99.90;;;;;;5070686;28;20017;-86
2022/01/18 12:15:19;;;;;;;1.85;0.60;;;7.20;99.90;;;;;;5052826;28;20408;-85
2022/01/18 12:17:56;;;;;;;3.25;0.95;;;7.10;99.90;;;;;;5053040;28;20377;-86
2022/01/18 12:20:46;;;;;;;2.50;0.60;;;7.10;99.90;;;;;;5051065;28;20150;-85
2022/01/18 12:23:18;;;;;;;2.47;0.70;;;7.00;99.90;;;;;;5032820;28;20448;-85
2022/01/18 12:37:11;;;;;;;0.30;0.30;;;6.90;99.90;;;;;;5070176;28;20047;-86
2022/01/18 12:39:57;;;;;;;0.55;0.45;;;6.90;99.90;;;;;;5070533;28;20485;-86
2022/01/18 12:45:13;;;;;;;3.30;0.47;;;6.90;99.90;;;;;;5069582;28;20032;-86
2022/01/18 12:47:42;;;;;;;2.55;0.52;;;6.90;99.90;;;;;;5069160;28;20029;-86
2022/01/18 12:50:10;;;;;;;0.40;0.35;;;6.90;99.90;;;;;;5070664;28;20487;-85
2022/01/18 12:53:06;;;;;;;1.08;0.70;;;6.90;99.90;;;;;;5069123;28;20136;-86
2022/01/18 12:55:38;;;;;;;1.50;0.55;;;6.90;99.90;;;;;;5070627;28;20017;-85
2022/01/18 12:58:24;;;;;;;0.70;0.40;;;6.90;99.90;;;;;;5052024;28;20032;-86
2022/01/18 13:00:55;;;;;;;2.42;0.52;;;6.80;99.90;;;;;;5048844;28;20373;-86
2022/01/18 13:03:34;;;;;;;1.23;0.57;;;6.70;99.90;;;;;;5031968;28;20048;-86
2022/01/18 13:06:17;;;;;;;2.50;0.90;;;6.70;99.90;;;;;;5032477;28;20029;-85
2022/01/18 13:08:50;;;;;;;0.98;0.60;;;6.70;99.90;;;;;;5031242;28;20113;-85
2022/01/18 13:11:25;;;;;;;0.28;0.28;;;6.60;99.90;;;;;;5032240;28;20536;-85
2022/01/18 13:14:08;;;;;;;4.57;0.65;;;6.60;99.90;;;;;;5050569;28;20025;-85
2022/01/18 13:25:15;;;;;;;1.00;0.65;;;6.40;99.90;;;;;;5049460;28;20086;-86
2022/01/18 13:28:00;;;;;;;0.93;0.68;;;6.50;99.90;;;;;;5031756;28;20029;-86
2022/01/18 13:30:28;;;;;;;0.95;0.68;;;6.50;99.90;;;;;;5049237;28;20025;-86
2022/01/18 13:33:00;;;;;;;0.70;0.70;;;6.50;99.90;;;;;;5031898;28;20025;-85
2022/01/18 13:35:30;;;;;;;1.30;0.38;;;6.50;99.90;;;;;;5032296;28;20078;-86
2022/01/18 13:37:58;;;;;;;0.52;0.50;;;6.50;99.90;;;;;;5033481;28;20029;-85
2022/01/18 13:40:26;;;;;;;0.55;0.52;;;6.50;99.90;;;;;;5053961;28;20033;-85
2022/01/18 13:43:04;;;;;;;0.50;0.50;;;6.50;99.90;;;;;;5050989;28;20028;-86
2022/01/18 13:45:31;;;;;;;4.07;0.75;;;6.50;99.90;;;;;;5085771;22;20043;-85
2022/01/18 13:48:06;;;;;;;1.50;0.68;;;6.50;99.90;;;;;;5053225;28;20415;-84
2022/01/18 13:50:41;;;;;;;1.33;0.70;;;6.60;99.90;;;;;;5072854;28;20029;-85
2022/01/18 13:53:17;;;;;;;3.00;0.80;;;6.60;99.90;;;;;;5076066;28;20035;-84
2022/01/18 13:56:00;;;;;;;3.03;1.00;;;6.60;99.90;;;;;;5075792;28;20020;-85
2022/01/18 13:58:32;;;;;;;1.30;0.77;;;6.60;99.90;;;;;;5075283;28;20035;-85
2022/01/18 14:01:24;;;;;;;1.10;0.90;;;6.50;99.90;;;;;;5059795;28;20039;-85
2022/01/18 14:03:52;;;;;;;1.75;0.80;;;6.50;99.90;;;;;;5021621;28;20416;-84
2022/01/18 14:06:31;;;;;;;1.38;1.17;;;6.40;99.90;;;;;;5043750;28;20040;-85
2022/01/18 14:08:57;;;;;;;1.48;0.98;;;6.40;99.90;;;;;;5055674;28;20551;-83
2022/01/18 14:11:29;;;;;;;2.60;1.50;;;6.40;99.90;;;;;;5073236;28;20024;-85
2022/01/18 14:13:59;;;;;;;2.58;1.70;;;6.30;99.90;;;;;;5054921;28;20108;-83
2022/01/18 14:16:33;;;;;;;3.95;1.75;;;6.20;99.90;;;;;;5023093;28;20051;-85
2022/01/18 14:19:10;;;;;;;2.13;1.27;;;6.10;99.90;;;;;;5039384;28;20032;-85
2022/01/18 14:21:39;;;;;;;2.08;1.52;;;6.10;99.90;;;;;;5039323;28;20077;-84
2022/01/18 14:24:18;;;;;;;2.40;1.58;;;6.00;99.90;;;;;;5057177;28;20028;-85
2022/01/18 14:26:52;;;;;;;6.18;1.75;;;6.00;99.90;;;;;;5038754;28;20035;-83
2022/01/18 14:29:30;;;;;;;2.05;1.20;;;5.90;99.90;;;;;;5055510;28;20078;-85